Time;durP1;ratioP1;P1;durP2;ratioP2;P2;SDS_P1;SDS_P2;PMS_P1;PMS_P2;Temp;Humidity;BMP_temperature;BMP_pressure;BME280_temperature;BME280_humidity;BME280_pressure;Samples;Min_cycle;Max_cycle;Signal;HPM_P1;HPM_P2
2021/08/27 00:01:02;;;;;;;6.97;1.70;;;;;;;14.17;100.00;100571.03;4997980;28;20734;-78
2021/08/27 00:03:30;;;;;;;4.27;2.10;;;;;;;14.08;100.00;100578.28;4999430;28;20193;-79
2021/08/27 00:05:56;;;;;;;2.07;1.40;;;;;;;14.08;100.00;100572.81;4982516;28;20668;-80
2021/08/27 00:08:22;;;;;;;2.97;1.60;;;;;;;14.00;100.00;100573.47;4999103;28;20189;-79
2021/08/27 00:10:47;;;;;;;3.57;1.80;;;;;;;14.14;100.00;100571.63;4999331;28;20220;-79
2021/08/27 00:13:15;;;;;;;4.67;1.60;;;;;;;13.90;100.00;100562.72;4997799;28;20570;-79
2021/08/27 00:15:43;;;;;;;3.87;1.53;;;;;;;14.03;100.00;100570.19;4973032;28;20226;-81
2021/08/27 00:18:08;;;;;;;4.77;1.67;;;;;;;13.84;100.00;100563.88;4996262;28;20675;-79
2021/08/27 00:20:38;;;;;;;4.90;1.70;;;;;;;13.76;100.00;100564.53;4998813;28;20233;-78
2021/08/27 00:23:04;;;;;;;5.33;1.70;;;;;;;13.75;100.00;100564.84;4999918;28;20188;-81
2021/08/27 00:25:30;;;;;;;4.33;1.80;;;;;;;13.70;100.00;100568.47;4998087;28;20221;-80
2021/08/27 00:28:00;;;;;;;4.00;1.60;;;;;;;14.03;100.00;100584.66;4982089;28;20243;-79
2021/08/27 00:30:28;;;;;;;3.83;1.80;;;;;;;13.97;100.00;100569.41;5000798;28;20283;-80
2021/08/27 00:32:54;;;;;;;4.73;2.17;;;;;;;13.93;100.00;100570.28;4999142;28;20186;-79
2021/08/27 00:35:19;;;;;;;3.40;1.90;;;;;;;13.75;100.00;100571.09;4999812;28;20264;-78
2021/08/27 00:37:47;;;;;;;5.87;1.93;;;;;;;13.82;100.00;100565.28;4997711;28;20174;-79
2021/08/27 00:40:13;;;;;;;5.63;2.30;;;;;;;13.74;100.00;100569.50;4997884;28;20222;-80
2021/08/27 00:42:39;;;;;;;3.80;1.53;;;;;;;13.92;100.00;100565.94;4999885;28;20190;-79
2021/08/27 00:45:07;;;;;;;4.37;1.80;;;;;;;13.74;100.00;100561.31;4998760;28;20209;-80
2021/08/27 00:47:35;;;;;;;3.87;1.90;;;;;;;13.55;100.00;100557.75;4998749;28;20228;-78
2021/08/27 00:50:00;;;;;;;4.07;1.50;;;;;;;13.81;100.00;100559.03;4997538;28;20185;-79
2021/08/27 00:52:26;;;;;;;4.37;1.60;;;;;;;13.91;100.00;100567.84;4996925;28;20263;-81
2021/08/27 00:54:54;;;;;;;5.10;1.50;;;;;;;13.98;100.00;100559.31;4997597;28;20206;-80
2021/08/27 00:57:23;;;;;;;3.40;1.80;;;;;;;13.90;100.00;100562.72;4996301;28;20225;-83
2021/08/27 00:59:53;;;;;;;4.17;1.80;;;;;;;13.85;100.00;100566.31;4998076;28;20213;-78
2021/08/27 01:02:19;;;;;;;8.07;1.97;;;;;;;13.90;100.00;100568.16;4997009;28;20222;-78
2021/08/27 01:04:46;;;;;;;3.87;1.90;;;;;;;13.97;100.00;100568.59;4998722;28;20757;-80
2021/08/27 01:07:16;;;;;;;3.63;1.77;;;;;;;13.92;100.00;100566.75;4980775;28;20262;-79
2021/08/27 01:09:47;;;;;;;3.70;2.10;;;;;;;14.01;100.00;100569.63;4996118;28;20285;-80
2021/08/27 01:12:28;;;;;;;2.70;1.60;;;;;;;13.72;100.00;100560.78;4997904;28;20260;-80
2021/08/27 01:14:57;;;;;;;4.27;1.53;;;;;;;13.89;100.00;100561.88;4980908;28;20273;-80
2021/08/27 01:17:28;;;;;;;3.73;1.90;;;;;;;14.02;100.00;100565.81;4976479;28;20712;-79
2021/08/27 01:20:08;;;;;;;4.00;1.77;;;;;;;13.95;100.00;100562.59;4982678;28;20215;-79
2021/08/27 01:23:00;;;;;;;7.53;1.90;;;;;;;13.85;100.00;100560.03;4998216;28;20228;-79
2021/08/27 01:25:31;;;;;;;6.40;2.10;;;;;;;13.67;100.00;100558.13;4996107;28;20217;-78
2021/08/27 01:27:57;;;;;;;5.33;1.90;;;;;;;13.69;100.00;100558.63;4980341;28;20193;-81
2021/08/27 01:30:42;;;;;;;7.27;1.80;;;;;;;13.96;100.00;100558.78;4995435;28;20233;-80
2021/08/27 01:33:14;;;;;;;5.10;1.83;;;;;;;13.79;100.00;100552.22;4996501;28;20193;-80
2021/08/27 01:35:45;;;;;;;3.43;1.70;;;;;;;13.75;100.00;100554.72;4997002;28;20225;-82
2021/08/27 01:38:12;;;;;;;4.80;1.93;;;;;;;13.84;100.00;100556.50;4964017;28;20215;-81
2021/08/27 01:40:38;;;;;;;3.77;2.10;;;;;;;13.77;100.00;100551.69;4995323;28;20242;-80
2021/08/27 01:43:06;;;;;;;3.43;1.60;;;;;;;13.85;100.00;100551.84;4995251;28;20196;-82
2021/08/27 01:45:34;;;;;;;5.07;1.87;;;;;;;13.66;100.00;100561.97;4961316;28;20227;-79
2021/08/27 01:48:00;;;;;;;3.83;1.80;;;;;;;13.57;100.00;100569.19;4979365;28;20185;-80
2021/08/27 01:50:29;;;;;;;6.90;1.90;;;;;;;13.71;100.00;100566.53;4979257;28;20596;-79
2021/08/27 01:52:56;;;;;;;5.40;1.70;;;;;;;13.85;100.00;100565.50;4964074;28;20548;-82
2021/08/27 01:55:24;;;;;;;5.03;1.90;;;;;;;13.83;100.00;100565.00;4995260;28;20710;-80
2021/08/27 01:57:50;;;;;;;4.83;1.73;;;;;;;13.88;100.00;100559.44;4978998;28;20205;-81
2021/08/27 02:00:18;;;;;;;4.63;1.67;;;;;;;13.86;100.00;100561.66;4960743;28;20703;-79
2021/08/27 02:02:46;;;;;;;3.87;2.00;;;;;;;13.85;100.00;100555.38;4985956;28;20194;-80
2021/08/27 02:05:16;;;;;;;3.20;1.90;;;;;;;13.76;100.00;100553.63;4976204;28;20207;-81
2021/08/27 02:07:42;;;;;;;3.43;1.70;;;;;;;13.62;100.00;100560.91;4996515;28;20648;-80
2021/08/27 02:10:11;;;;;;;5.30;2.03;;;;;;;13.47;100.00;100554.84;4979034;28;20204;-80
2021/08/27 02:12:39;;;;;;;4.73;1.60;;;;;;;13.62;100.00;100565.56;4979344;28;20265;-81
2021/08/27 02:15:05;;;;;;;2.70;1.63;;;;;;;13.69;100.00;100561.34;4979025;28;20217;-81
2021/08/27 02:17:31;;;;;;;4.17;1.67;;;;;;;13.66;100.00;100552.94;4963403;28;20228;-81
2021/08/27 02:19:58;;;;;;;4.73;2.20;;;;;;;13.50;100.00;100562.47;4996872;28;20213;-81
2021/08/27 02:22:27;;;;;;;7.57;1.67;;;;;;;13.43;100.00;100550.28;4996574;28;20233;-79
2021/08/27 02:24:58;;;;;;;5.97;1.80;;;;;;;13.47;100.00;100552.94;4980021;28;20205;-80
2021/08/27 02:27:28;;;;;;;4.77;1.60;;;;;;;13.45;100.00;100548.09;4995122;28;20710;-79
2021/08/27 02:29:54;;;;;;;3.37;1.60;;;;;;;13.65;100.00;100538.50;4979974;28;20217;-81
2021/08/27 02:32:20;;;;;;;5.30;2.00;;;;;;;13.58;100.00;100543.50;4996598;28;20241;-80
2021/08/27 02:34:45;;;;;;;3.47;2.00;;;;;;;13.48;100.00;100549.13;4979300;28;20264;-80
2021/08/27 02:37:11;;;;;;;4.23;1.53;;;;;;;13.45;100.00;100543.44;4995375;28;20726;-79
2021/08/27 02:39:39;;;;;;;5.03;1.70;;;;;;;13.50;100.00;100544.16;4979343;28;20205;-79
2021/08/27 02:42:05;;;;;;;4.57;1.77;;;;;;;13.57;100.00;100552.81;4996175;28;20329;-81
2021/08/27 02:44:33;;;;;;;4.47;1.87;;;;;;;13.60;100.00;100535.81;4994716;28;20559;-81
2021/08/27 02:46:58;;;;;;;3.53;1.80;;;;;;;13.70;100.00;100546.63;4995180;28;20264;-81
2021/08/27 02:49:24;;;;;;;4.93;2.10;;;;;;;13.73;100.00;100550.66;4996188;28;20257;-82
2021/08/27 02:52:15;;;;;;;4.07;1.77;;;;;;;13.72;100.00;100546.34;5001765;28;20226;-83
2021/08/27 02:54:53;;;;;;;4.33;1.70;;;;;;;13.84;100.00;100542.03;5011907;28;20189;-80
2021/08/27 02:57:19;;;;;;;3.57;1.80;;;;;;;13.90;100.00;100540.88;4998527;28;20225;-82
2021/08/27 02:59:48;;;;;;;4.07;1.90;;;;;;;13.76;100.00;100542.69;4997304;28;20230;-81
2021/08/27 03:02:19;;;;;;;3.80;1.70;;;;;;;13.78;100.00;100545.94;4979254;28;20206;-84
2021/08/27 03:04:56;;;;;;;3.03;1.63;;;;;;;13.96;100.00;100539.66;4978554;28;20198;-82
2021/08/27 03:07:24;;;;;;;4.67;1.70;;;;;;;13.61;100.00;100542.94;5002776;28;20245;-80
2021/08/27 03:10:12;;;;;;;3.83;1.60;;;;;;;13.49;100.00;100528.88;4978568;28;20201;-81
2021/08/27 03:12:51;;;;;;;2.80;1.93;;;;;;;13.61;100.00;100531.19;4956785;28;20214;-80
2021/08/27 03:15:29;;;;;;;5.57;2.10;;;;;;;13.56;100.00;100534.78;4994475;28;20209;-80
2021/08/27 03:17:58;;;;;;;4.47;2.00;;;;;;;13.74;100.00;100523.06;4990070;28;20316;-83
2021/08/27 03:20:31;;;;;;;5.30;1.63;;;;;;;13.55;100.00;100524.16;4994686;28;20229;-81
2021/08/27 03:23:06;;;;;;;4.23;1.60;;;;;;;13.77;100.00;100530.66;4975842;28;20193;-81
2021/08/27 03:25:34;;;;;;;4.77;1.50;;;;;;;13.73;100.00;100531.56;4977514;28;20256;-82
2021/08/27 03:28:03;;;;;;;3.53;1.80;;;;;;;13.69;100.00;100520.41;4973523;28;20190;-82
2021/08/27 03:30:29;;;;;;;5.10;2.27;;;;;;;13.77;100.00;100517.00;4979088;28;20217;-82
2021/08/27 03:33:03;;;;;;;3.60;1.57;;;;;;;13.61;100.00;100518.34;4964200;28;20229;-79
2021/08/27 03:35:29;;;;;;;3.10;1.70;;;;;;;13.64;100.00;100525.13;4963935;28;20261;-80
2021/08/27 03:37:55;;;;;;;4.73;1.77;;;;;;;13.72;100.00;100522.56;4992675;28;20234;-79
2021/08/27 03:40:23;;;;;;;2.53;1.40;;;;;;;13.69;100.00;100522.34;4999136;28;20208;-80
2021/08/27 03:42:48;;;;;;;4.43;1.60;;;;;;;13.59;100.00;100522.50;4984399;28;20177;-80
2021/08/27 03:45:15;;;;;;;3.27;1.87;;;;;;;13.60;100.00;100519.44;4982534;28;20264;-82
2021/08/27 03:47:42;;;;;;;3.73;1.80;;;;;;;13.50;100.00;100519.59;4982551;28;20671;-81
2021/08/27 03:50:11;;;;;;;3.07;1.57;;;;;;;13.49;100.00;100509.78;4966436;28;20224;-79
2021/08/27 03:52:37;;;;;;;5.13;1.90;;;;;;;13.35;100.00;100507.28;4979003;28;20186;-81
2021/08/27 03:55:06;;;;;;;4.90;1.70;;;;;;;13.55;100.00;100505.91;4994005;28;20650;-82
2021/08/27 03:57:34;;;;;;;6.43;1.93;;;;;;;13.63;100.00;100513.41;4987274;28;20194;-81
2021/08/27 04:00:00;;;;;;;2.40;1.63;;;;;;;13.48;100.00;100508.19;4953725;28;20297;-82
2021/08/27 04:02:26;;;;;;;4.50;1.57;;;;;;;13.54;100.00;100508.91;5004993;28;20221;-81
2021/08/27 04:05:10;;;;;;;4.40;1.90;;;;;;;13.62;100.00;100500.84;5007243;28;20261;-81
2021/08/27 04:07:35;;;;;;;3.23;1.60;;;;;;;13.64;100.00;100509.56;5003464;28;20219;-82
2021/08/27 04:10:01;;;;;;;3.97;1.80;;;;;;;13.74;100.00;100498.50;5003288;28;20210;-83
2021/08/27 04:12:27;;;;;;;3.37;1.67;;;;;;;13.69;100.00;100501.31;4997826;28;20222;-81
2021/08/27 04:14:52;;;;;;;4.40;1.60;;;;;;;13.88;100.00;100500.19;4998610;28;20720;-79
2021/08/27 04:17:18;;;;;;;4.47;1.80;;;;;;;13.71;100.00;100493.63;4998472;28;20621;-81
2021/08/27 04:19:51;;;;;;;4.43;1.80;;;;;;;13.75;100.00;100500.13;4957247;28;20283;-81
2021/08/27 04:22:19;;;;;;;3.97;1.53;;;;;;;13.77;100.00;100506.09;4998500;28;20221;-79
2021/08/27 04:24:46;;;;;;;3.77;1.50;;;;;;;13.85;100.00;100494.50;4999441;28;20188;-79
2021/08/27 04:27:12;;;;;;;2.33;1.63;;;;;;;13.81;100.00;100488.03;4998959;28;20380;-78
2021/08/27 04:29:38;;;;;;;3.27;1.73;;;;;;;13.89;100.00;100490.06;4998213;28;20222;-79
2021/08/27 04:32:07;;;;;;;3.37;1.83;;;;;;;13.97;100.00;100482.03;4998059;28;20692;-79
2021/08/27 04:34:33;;;;;;;4.70;1.57;;;;;;;14.03;100.00;100488.25;4981694;28;20254;-80
2021/08/27 04:36:58;;;;;;;3.23;1.53;;;;;;;13.85;100.00;100483.59;4998239;28;20707;-80
2021/08/27 04:39:29;;;;;;;3.67;1.60;;;;;;;13.94;100.00;100479.88;4997031;28;20329;-80
2021/08/27 04:41:57;;;;;;;4.00;1.50;;;;;;;14.01;100.00;100485.81;4997695;28;20240;-80
2021/08/27 04:44:25;;;;;;;5.77;2.40;;;;;;;13.73;100.00;100485.94;4998746;28;20194;-81
2021/08/27 04:46:55;;;;;;;5.83;1.57;;;;;;;13.92;100.00;100484.03;4990010;28;20769;-79
2021/08/27 04:49:21;;;;;;;4.53;1.97;;;;;;;13.80;100.00;100483.66;4999000;28;20560;-79
2021/08/27 04:51:47;;;;;;;5.13;2.57;;;;;;;13.92;100.00;100486.75;4997716;28;20246;-80
2021/08/27 04:54:12;;;;;;;3.17;1.40;;;;;;;13.93;100.00;100485.63;4981263;28;20189;-79
2021/08/27 04:56:40;;;;;;;3.80;1.57;;;;;;;13.78;100.00;100485.88;4963874;28;20745;-80
2021/08/27 04:59:09;;;;;;;5.67;1.70;;;;;;;13.73;100.00;100488.69;4995899;28;20283;-80
2021/08/27 05:01:37;;;;;;;3.23;1.93;;;;;;;13.80;100.00;100491.84;4979601;28;20244;-81
2021/08/27 05:04:05;;;;;;;6.00;2.10;;;;;;;13.83;100.00;100497.53;4981051;28;20756;-79
2021/08/27 05:06:35;;;;;;;4.23;1.97;;;;;;;13.71;100.00;100503.75;4996767;28;20370;-79
2021/08/27 05:09:01;;;;;;;3.13;1.77;;;;;;;13.66;100.00;100501.91;4976188;28;20592;-79
2021/08/27 05:11:29;;;;;;;4.13;1.80;;;;;;;13.70;100.00;100496.66;4975591;28;20237;-81
2021/08/27 05:13:59;;;;;;;4.87;1.93;;;;;;;13.61;100.00;100503.91;4989260;28;20174;-81
2021/08/27 05:16:25;;;;;;;2.80;1.77;;;;;;;13.61;100.00;100504.72;4995015;28;20704;-80
2021/08/27 05:18:50;;;;;;;4.00;1.77;;;;;;;13.58;100.00;100499.84;4995439;28;20197;-79
2021/08/27 05:21:18;;;;;;;4.93;2.20;;;;;;;13.61;100.00;100509.38;4979048;28;20229;-79
2021/08/27 05:23:44;;;;;;;3.50;1.70;;;;;;;13.54;100.00;100507.00;4996495;28;20244;-79
2021/08/27 05:26:14;;;;;;;5.03;2.23;;;;;;;13.57;100.00;100509.16;4994240;28;20236;-80
2021/08/27 05:28:40;;;;;;;4.80;2.20;;;;;;;13.56;100.00;100506.69;4978665;28;20261;-79
2021/08/27 05:31:05;;;;;;;5.10;1.83;;;;;;;13.66;100.00;100507.38;4978697;28;20587;-78
2021/08/27 05:33:33;;;;;;;2.87;1.83;;;;;;;13.61;100.00;100496.53;4996269;28;20210;-79
2021/08/27 05:35:59;;;;;;;5.17;1.80;;;;;;;13.56;100.00;100502.06;4978439;28;20313;-79
2021/08/27 05:38:25;;;;;;;6.07;2.00;;;;;;;13.60;100.00;100508.53;4979192;28;20181;-79
2021/08/27 05:40:51;;;;;;;5.50;1.97;;;;;;;13.73;100.00;100501.53;4996360;28;20236;-79
2021/08/27 05:43:18;;;;;;;5.80;2.40;;;;;;;13.81;100.00;100504.41;4979775;28;20272;-80
2021/08/27 05:45:47;;;;;;;5.10;1.93;;;;;;;13.65;100.00;100496.75;4995443;28;20213;-79
2021/08/27 05:48:12;;;;;;;4.03;2.00;;;;;;;13.70;100.00;100502.09;4978941;28;20217;-79
2021/08/27 05:50:38;;;;;;;6.30;2.23;;;;;;;13.66;100.00;100512.84;4995392;28;20225;-80
2021/08/27 05:53:04;;;;;;;6.57;2.00;;;;;;;13.75;100.00;100502.84;4996613;28;20221;-79
2021/08/27 05:55:32;;;;;;;5.97;1.93;;;;;;;13.66;100.00;100507.38;4993387;28;20225;-78
2021/08/27 05:58:01;;;;;;;3.70;1.83;;;;;;;13.64;100.00;100509.56;4995267;28;20182;-77
2021/08/27 06:00:26;;;;;;;4.83;1.80;;;;;;;13.73;100.00;100507.78;4972382;28;22222;-78
2021/08/27 06:02:52;;;;;;;4.53;2.20;;;;;;;13.59;100.00;100512.38;4976720;28;20209;-77
2021/08/27 06:05:20;;;;;;;3.90;2.30;;;;;;;13.66;100.00;100510.09;4970610;28;20650;-78
2021/08/27 06:07:46;;;;;;;5.43;2.50;;;;;;;13.56;100.00;100509.44;4995513;28;20189;-82
2021/08/27 06:10:14;;;;;;;4.53;2.10;;;;;;;13.55;100.00;100514.09;5000998;28;20194;-80
2021/08/27 06:12:43;;;;;;;6.47;2.20;;;;;;;13.60;100.00;100508.53;4996557;28;20186;-78
2021/08/27 06:15:14;;;;;;;5.53;2.30;;;;;;;13.56;100.00;100512.97;4994329;28;20206;-79
2021/08/27 06:17:40;;;;;;;7.73;2.17;;;;;;;13.62;100.00;100510.97;4996297;28;20182;-79
2021/08/27 06:20:08;;;;;;;6.43;2.20;;;;;;;13.64;100.00;100511.50;4995510;28;20212;-78
2021/08/27 06:22:34;;;;;;;4.70;2.30;;;;;;;13.67;100.00;100511.72;4997512;28;20185;-78
2021/08/27 06:24:59;;;;;;;6.40;2.43;;;;;;;13.86;100.00;100504.31;4976736;28;20207;-80
2021/08/27 06:27:27;;;;;;;6.30;2.20;;;;;;;13.67;100.00;100506.25;4973658;28;20222;-81
2021/08/27 06:29:55;;;;;;;4.80;2.33;;;;;;;13.73;100.00;100507.78;4980447;28;20583;-78
2021/08/27 06:32:21;;;;;;;6.43;2.30;;;;;;;13.72;100.00;100499.94;4994754;28;20225;-78
2021/08/27 06:34:46;;;;;;;4.93;2.50;;;;;;;13.81;100.00;100498.94;4980356;28;20197;-78
2021/08/27 06:37:15;;;;;;;6.00;2.40;;;;;;;13.79;100.00;100506.63;4996852;28;20221;-78
2021/08/27 06:39:40;;;;;;;3.87;2.20;;;;;;;13.73;100.00;100501.53;4995084;28;20291;-79
2021/08/27 06:42:09;;;;;;;4.47;2.30;;;;;;;13.83;100.00;100500.25;4978800;28;20359;-78
2021/08/27 06:44:37;;;;;;;5.57;2.40;;;;;;;13.83;100.00;100507.66;4995336;28;20213;-79
2021/08/27 06:47:05;;;;;;;6.03;2.43;;;;;;;13.88;100.00;100493.91;4990084;28;20707;-80
2021/08/27 06:49:30;;;;;;;7.83;2.80;;;;;;;13.93;100.00;100499.28;4996533;28;20277;-78
2021/08/27 06:51:59;;;;;;;6.13;2.60;;;;;;;13.92;100.00;100500.41;4955202;28;20267;-81
2021/08/27 06:54:27;;;;;;;6.33;2.20;;;;;;;13.84;100.00;100506.53;4978517;28;20595;-80
2021/08/27 06:56:54;;;;;;;7.03;2.43;;;;;;;13.98;100.00;100500.03;4992825;28;20232;-79
2021/08/27 06:59:22;;;;;;;3.73;2.10;;;;;;;13.88;100.00;100508.38;4995308;28;20177;-79
2021/08/27 07:01:50;;;;;;;6.13;2.20;;;;;;;14.14;100.00;100516.97;4983539;28;20231;-79
2021/08/27 07:04:19;;;;;;;4.63;2.50;;;;;;;14.05;100.00;100510.59;4968448;28;20209;-78
2021/08/27 07:06:44;;;;;;;4.43;2.20;;;;;;;14.03;100.00;100512.81;4998589;28;20229;-78
2021/08/27 07:09:12;;;;;;;4.50;2.30;;;;;;;14.07;100.00;100511.13;4998245;28;20181;-78
2021/08/27 07:11:40;;;;;;;3.90;2.10;;;;;;;14.19;100.00;100511.44;4999846;28;20260;-79
2021/08/27 07:14:10;;;;;;;5.30;2.40;;;;;;;14.20;100.00;100513.09;4965283;28;20206;-77
2021/08/27 07:16:35;;;;;;;3.27;2.10;;;;;;;14.33;100.00;100519.38;4995912;28;20303;-79
2021/08/27 07:19:01;;;;;;;3.13;1.90;;;;;;;14.43;100.00;100513.75;4998842;28;20679;-79
2021/08/27 07:21:29;;;;;;;3.77;2.00;;;;;;;14.41;100.00;100513.25;4998835;28;20230;-81
2021/08/27 07:23:55;;;;;;;4.00;2.00;;;;;;;14.22;100.00;100510.88;4981906;28;20188;-81
2021/08/27 07:26:21;;;;;;;4.40;2.20;;;;;;;14.20;100.00;100518.56;4981214;28;20803;-79
2021/08/27 07:28:46;;;;;;;4.73;2.00;;;;;;;14.23;100.00;100516.84;4999349;28;20189;-79
2021/08/27 07:31:14;;;;;;;4.63;1.80;;;;;;;14.20;100.00;100508.41;4965459;28;20221;-81
2021/08/27 07:33:42;;;;;;;4.40;2.10;;;;;;;14.43;100.00;100512.91;4987929;28;21054;-77
2021/08/27 07:36:09;;;;;;;4.30;2.30;;;;;;;14.51;100.00;100507.59;4975721;28;20229;-79
2021/08/27 07:38:39;;;;;;;5.73;2.43;;;;;;;14.47;100.00;100514.78;5004906;28;20650;-80
2021/08/27 07:41:07;;;;;;;5.03;2.03;;;;;;;14.43;100.00;100521.94;4963103;28;20770;-81
2021/08/27 07:43:35;;;;;;;4.87;2.43;;;;;;;14.39;100.00;100512.72;4988047;28;20684;-80
2021/08/27 07:46:06;;;;;;;5.17;2.37;;;;;;;14.31;100.00;100516.13;4997137;28;20209;-78
2021/08/27 07:48:36;;;;;;;5.97;2.20;;;;;;;14.34;100.00;100517.44;4981230;28;20190;-83
2021/08/27 07:51:09;;;;;;;5.10;2.40;;;;;;;14.17;100.00;100524.59;4998401;28;20721;-78
2021/08/27 07:53:34;;;;;;;5.13;2.40;;;;;;;14.20;100.00;100516.63;5002653;28;20182;-78
2021/08/27 07:56:02;;;;;;;7.30;2.57;;;;;;;14.21;100.00;100514.69;4976039;28;20280;-81
2021/08/27 07:58:30;;;;;;;5.77;2.90;;;;;;;14.33;100.00;100518.56;4996712;28;20562;-78
2021/08/27 08:00:57;;;;;;;7.37;3.40;;;;;;;14.43;100.00;100519.22;4983846;28;20239;-82
2021/08/27 08:03:22;;;;;;;6.07;2.33;;;;;;;14.34;100.00;100523.75;4972528;28;20657;-83
2021/08/27 08:05:53;;;;;;;5.33;2.30;;;;;;;14.43;100.00;100519.22;4979536;28;20264;-78
2021/08/27 08:08:19;;;;;;;7.40;2.43;;;;;;;14.41;100.00;100517.88;4995845;28;20217;-83
2021/08/27 08:10:47;;;;;;;3.17;2.30;;;;;;;14.51;100.00;100521.25;4979930;28;20217;-82
2021/08/27 08:13:16;;;;;;;4.27;2.10;;;;;;;14.67;100.00;100522.59;4996735;28;20522;-83
2021/08/27 08:15:42;;;;;;;5.50;2.47;;;;;;;14.78;100.00;100526.75;4998452;28;20227;-80
2021/08/27 08:18:10;;;;;;;6.93;2.13;;;;;;;14.90;100.00;100516.13;4961919;28;20213;-80
2021/08/27 08:20:37;;;;;;;4.20;2.50;;;;;;;15.12;100.00;100509.63;4972157;28;20234;-80
2021/08/27 08:23:08;;;;;;;6.13;2.87;;;;;;;15.01;100.00;100516.41;4997314;28;20199;-79
2021/08/27 08:25:39;;;;;;;5.17;2.60;;;;;;;15.17;100.00;100520.50;4995418;28;20218;-80
2021/08/27 08:28:07;;;;;;;5.80;2.30;;;;;;;15.36;100.00;100518.44;4995991;28;20181;-77
2021/08/27 08:30:33;;;;;;;5.67;2.20;;;;;;;15.48;100.00;100524.22;4980130;28;20217;-80
2021/08/27 08:33:01;;;;;;;4.97;2.30;;;;;;;15.60;100.00;100530.75;4978065;28;20189;-78
2021/08/27 08:35:27;;;;;;;4.17;2.30;;;;;;;15.65;100.00;100521.63;4993760;28;20323;-77
2021/08/27 08:37:55;;;;;;;5.13;2.00;;;;;;;15.54;100.00;100525.72;4980844;28;20182;-83
2021/08/27 08:40:23;;;;;;;4.20;2.40;;;;;;;15.76;100.00;100539.47;4972117;28;20247;-84
2021/08/27 08:42:48;;;;;;;3.80;1.80;;;;;;;15.69;100.00;100544.56;4986674;28;20181;-80
2021/08/27 08:45:17;;;;;;;4.20;1.80;;;;;;;15.51;100.00;100540.84;4965630;28;20201;-79
2021/08/27 08:47:45;;;;;;;5.30;2.23;;;;;;;15.57;100.00;100544.28;4995960;28;20251;-83
2021/08/27 08:50:11;;;;;;;2.87;2.13;;;;;;;15.61;100.00;100542.56;4996280;28;20194;-83
2021/08/27 08:52:42;;;;;;;3.57;1.73;;;;;;;15.43;100.00;100546.22;4994617;28;20182;-83
2021/08/27 08:55:11;;;;;;;3.83;1.73;;;;;;;15.41;100.00;100553.94;4980365;28;20349;-84
2021/08/27 08:57:39;;;;;;;1.93;1.70;;;;;;;15.61;100.00;100554.31;4964615;28;20186;-82
2021/08/27 09:00:05;;;;;;;3.30;1.43;;;;;;;15.75;100.00;100543.31;4996513;28;20233;-81
2021/08/27 09:02:31;;;;;;;3.47;1.73;;;;;;;15.62;100.00;100549.63;4995108;28;20225;-80
2021/08/27 09:05:01;;;;;;;4.37;1.80;;;;;;;15.78;100.00;100547.03;4977126;28;20226;-82
2021/08/27 09:07:29;;;;;;;3.10;1.80;;;;;;;15.83;100.00;100555.16;4978057;28;20237;-82
2021/08/27 09:09:58;;;;;;;2.33;1.43;;;;;;;15.69;100.00;100558.25;4979776;28;20197;-77
2021/08/27 09:12:28;;;;;;;2.30;1.17;;;;;;;15.56;100.00;100551.66;4995006;28;20288;-79
2021/08/27 09:14:58;;;;;;;1.93;1.00;;;;;;;15.52;100.00;100563.56;4991115;28;20218;-80
2021/08/27 09:17:32;;;;;;;1.93;1.07;;;;;;;15.61;100.00;100558.97;4994330;28;20225;-78
2021/08/27 09:19:58;;;;;;;1.93;1.27;;;;;;;15.53;100.00;100570.63;4979589;28;20221;-79
2021/08/27 09:22:26;;;;;;;2.20;1.23;;;;;;;15.56;100.00;100572.78;4993331;28;20324;-81
2021/08/27 09:25:08;;;;;;;2.87;1.57;;;;;;;15.70;100.00;100571.63;4942226;28;20214;-82
2021/08/27 09:27:54;;;;;;;16.87;15.17;;;;;;;15.54;100.00;100566.78;4989024;28;20218;-81
2021/08/27 09:30:19;;;;;;;9.43;8.00;;;;;;;15.70;100.00;100568.09;4996409;28;20190;-81
2021/08/27 09:32:45;;;;;;;17.47;12.93;;;;;;;15.70;100.00;100570.84;4998630;28;20617;-81
2021/08/27 09:35:19;;;;;;;3.13;2.50;;;;;;;15.71;100.00;100570.50;5011932;28;20300;-81
2021/08/27 09:37:46;;;;;;;6.33;5.27;;;;;;;15.90;100.00;100569.25;5014615;28;20314;-76
2021/08/27 09:40:14;;;;;;;4.80;3.30;;;;;;;15.98;100.00;100575.91;4978728;28;20213;-87
2021/08/27 09:42:45;;;;;;;3.87;2.73;;;;;;;16.15;100.00;100571.38;5013248;28;20186;-82
2021/08/27 09:45:13;;;;;;;1.87;1.30;;;;;;;16.10;100.00;100573.44;4980924;28;20221;-78
2021/08/27 09:47:59;;;;;;;2.70;2.20;;;;;;;16.14;100.00;100569.78;4990879;28;20201;-80
2021/08/27 09:50:26;;;;;;;3.13;2.40;;;;;;;16.33;100.00;100559.47;4980713;28;20288;-79
2021/08/27 09:53:02;;;;;;;3.03;2.00;;;;;;;16.40;100.00;100566.13;4995576;28;20182;-77
2021/08/27 09:55:44;;;;;;;2.70;2.33;;;;;;;16.30;100.00;100569.13;5004087;28;20339;-82
2021/08/27 09:58:13;;;;;;;2.50;2.30;;;;;;;16.47;100.00;100563.75;4965179;28;20253;-80
2021/08/27 10:00:41;;;;;;;2.83;1.60;;;;;;;16.46;100.00;100569.56;4984948;28;20225;-83
2021/08/27 10:03:26;;;;;;;1.50;1.40;;;;;;;16.38;100.00;100567.56;5000491;28;20189;-79
2021/08/27 10:05:54;;;;;;;2.90;1.73;;;;;;;16.64;100.00;100570.16;4953985;28;20229;-82
2021/08/27 10:08:23;;;;;;;2.47;1.77;;;;;;;16.70;100.00;100571.66;4991225;28;20190;-79
2021/08/27 10:10:53;;;;;;;2.35;2.13;;;;;;;16.97;100.00;100575.00;4972457;28;20225;-81
2021/08/27 10:13:19;;;;;;;2.50;1.95;;;;;;;17.28;100.00;100572.28;4979913;28;20194;-84
2021/08/27 10:15:47;;;;;;;3.25;2.10;;;;;;;17.24;100.00;100576.78;4991429;28;20802;-79
2021/08/27 10:18:15;;;;;;;2.88;1.90;;;;;;;17.42;100.00;100569.09;4995909;28;20200;-80
2021/08/27 10:20:44;;;;;;;2.85;2.00;;;;;;;17.66;100.00;100566.72;4981749;28;20229;-82
2021/08/27 10:23:11;;;;;;;1.60;1.50;;;;;;;17.60;100.00;100573.50;4991027;28;20194;-81
2021/08/27 10:25:37;;;;;;;2.00;1.80;;;;;;;17.98;100.00;100569.03;4962393;28;20226;-82
2021/08/27 10:28:04;;;;;;;1.85;1.70;;;;;;;17.90;100.00;100561.59;4978961;28;20754;-79
2021/08/27 10:30:48;;;;;;;1.60;1.50;;;;;;;18.18;100.00;100564.50;4979989;28;20243;-80
2021/08/27 10:33:17;;;;;;;2.33;1.50;;;;;;;18.24;100.00;100566.00;4997023;28;20223;-81
2021/08/27 10:35:48;;;;;;;3.47;1.23;;;;;;;18.48;100.00;100566.28;4997689;28;20233;-79
2021/08/27 10:38:45;;;;;;;1.50;1.02;;;;;;;18.52;100.00;100559.81;4995393;28;20767;-79
2021/08/27 10:41:21;;;;;;;1.10;1.00;;;;;;;18.01;100.00;100560.13;4989276;28;20236;-78
2021/08/27 10:43:51;;;;;;;2.75;1.20;;;;;;;17.97;100.00;100546.22;4980095;28;20190;-79
2021/08/27 10:46:16;;;;;;;1.83;1.40;;;;;;;17.92;100.00;100548.31;4955778;28;20251;-82
2021/08/27 10:48:51;;;;;;;1.40;1.30;;;;;;;17.86;100.00;100547.66;4979476;28;20687;-80
2021/08/27 10:51:29;;;;;;;2.15;1.10;;;;;;;18.25;100.00;100551.09;4995434;28;20316;-79
2021/08/27 10:53:56;;;;;;;1.98;1.27;;;;;;;18.60;100.00;100541.66;4974608;28;20787;-81
2021/08/27 10:56:54;;;;;;;1.83;1.20;;;;;;;18.80;100.00;100546.47;4995062;28;20232;-80
2021/08/27 10:59:23;;;;;;;1.45;1.02;;;;;;;18.57;100.00;100550.56;4996040;28;20186;-83
2021/08/27 11:01:58;;;;;;;1.25;0.90;;;;;;;18.58;100.00;100552.19;4980782;28;20240;-79
2021/08/27 11:04:29;;;;;;;1.52;1.00;;;;;;;18.44;100.00;100570.81;4998378;28;20640;-81
2021/08/27 11:06:58;;;;;;;1.08;0.98;;;;;;;18.53;100.00;100555.09;4982109;28;20741;-81
2021/08/27 11:09:28;;;;;;;1.92;0.90;;;;;;;18.76;100.00;100559.28;4979262;28;20186;-81
2021/08/27 11:12:18;;;;;;;1.80;1.20;;;;;;;18.52;100.00;100559.00;4994606;28;20226;-79
2021/08/27 11:14:53;;;;;;;1.00;0.88;;;;;;;17.76;100.00;100556.25;4995202;28;20205;-80
2021/08/27 11:17:19;;;;;;;1.80;1.20;;;;;;;17.68;100.00;100564.47;4997858;28;20245;-79
2021/08/27 11:19:48;;;;;;;1.00;0.90;;;;;;;17.69;100.00;100566.09;4999645;28;20703;-80
2021/08/27 11:22:30;;;;;;;1.00;0.90;;;;;;;17.90;100.00;100572.56;4995626;28;20229;-78
2021/08/27 11:25:04;;;;;;;1.45;1.10;;;;;;;18.43;100.00;100565.66;4956149;28;20215;-82